sensor_id;sensor_type;location;lat;lon;timestamp;P1;durP1;ratioP1;P2;durP2;ratioP2
76115;SDS011;64847;45.778;12.802;2023-02-15T00:01:47;37.73;;;32.40;;
76115;SDS011;64847;45.778;12.802;2023-02-15T00:04:13;40.27;;;34.07;;
76115;SDS011;64847;45.778;12.802;2023-02-15T00:06:39;35.87;;;31.93;;
76115;SDS011;64847;45.778;12.802;2023-02-15T00:09:05;39.70;;;33.47;;
76115;SDS011;64847;45.778;12.802;2023-02-15T00:11:31;35.37;;;31.50;;
76115;SDS011;64847;45.778;12.802;2023-02-15T00:16:38;35.53;;;30.80;;
76115;SDS011;64847;45.778;12.802;2023-02-15T00:19:04;33.93;;;29.87;;
76115;SDS011;64847;45.778;12.802;2023-02-15T00:21:31;35.23;;;31.23;;
76115;SDS011;64847;45.778;12.802;2023-02-15T00:23:57;36.13;;;31.13;;
76115;SDS011;64847;45.778;12.802;2023-02-15T00:26:26;34.90;;;31.10;;
76115;SDS011;64847;45.778;12.802;2023-02-15T00:28:52;37.43;;;32.10;;
76115;SDS011;64847;45.778;12.802;2023-02-15T00:31:18;36.10;;;29.17;;
76115;SDS011;64847;45.778;12.802;2023-02-15T00:33:44;34.83;;;29.53;;
76115;SDS011;64847;45.778;12.802;2023-02-15T00:36:09;33.83;;;29.97;;
76115;SDS011;64847;45.778;12.802;2023-02-15T00:38:35;33.03;;;27.93;;
76115;SDS011;64847;45.778;12.802;2023-02-15T00:41:02;31.50;;;27.83;;
76115;SDS011;64847;45.778;12.802;2023-02-15T00:43:29;30.57;;;27.20;;
76115;SDS011;64847;45.778;12.802;2023-02-15T00:45:56;32.77;;;27.77;;
76115;SDS011;64847;45.778;12.802;2023-02-15T00:48:21;31.30;;;27.77;;
76115;SDS011;64847;45.778;12.802;2023-02-15T00:50:51;32.33;;;28.83;;
76115;SDS011;64847;45.778;12.802;2023-02-15T00:53:17;29.97;;;26.43;;
76115;SDS011;64847;45.778;12.802;2023-02-15T00:55:43;29.63;;;26.33;;
76115;SDS011;64847;45.778;12.802;2023-02-15T00:58:09;32.63;;;27.37;;
76115;SDS011;64847;45.778;12.802;2023-02-15T01:00:35;33.97;;;29.43;;
76115;SDS011;64847;45.778;12.802;2023-02-15T01:03:03;31.40;;;28.03;;
76115;SDS011;64847;45.778;12.802;2023-02-15T01:05:29;34.47;;;29.53;;
76115;SDS011;64847;45.778;12.802;2023-02-15T01:07:55;33.93;;;30.17;;
76115;SDS011;64847;45.778;12.802;2023-02-15T01:10:21;36.87;;;32.00;;
76115;SDS011;64847;45.778;12.802;2023-02-15T01:12:46;35.63;;;31.80;;
76115;SDS011;64847;45.778;12.802;2023-02-15T01:15:12;35.57;;;31.00;;
76115;SDS011;64847;45.778;12.802;2023-02-15T01:17:37;32.87;;;29.33;;
76115;SDS011;64847;45.778;12.802;2023-02-15T01:20:03;37.03;;;32.10;;
76115;SDS011;64847;45.778;12.802;2023-02-15T01:22:29;38.17;;;32.70;;
76115;SDS011;64847;45.778;12.802;2023-02-15T01:24:54;36.27;;;31.00;;
76115;SDS011;64847;45.778;12.802;2023-02-15T01:27:19;36.23;;;31.33;;
76115;SDS011;64847;45.778;12.802;2023-02-15T01:29:45;38.93;;;33.23;;
76115;SDS011;64847;45.778;12.802;2023-02-15T01:32:10;38.07;;;30.87;;
76115;SDS011;64847;45.778;12.802;2023-02-15T01:34:35;38.87;;;30.07;;
76115;SDS011;64847;45.778;12.802;2023-02-15T01:37:01;35.43;;;30.67;;
76115;SDS011;64847;45.778;12.802;2023-02-15T01:39:26;35.03;;;31.20;;
76115;SDS011;64847;45.778;12.802;2023-02-15T01:41:51;35.13;;;29.97;;
76115;SDS011;64847;45.778;12.802;2023-02-15T01:47:11;31.07;;;26.73;;
76115;SDS011;64847;45.778;12.802;2023-02-15T01:49:39;31.63;;;27.43;;
76115;SDS011;64847;45.778;12.802;2023-02-15T01:52:07;31.10;;;26.57;;
76115;SDS011;64847;45.778;12.802;2023-02-15T01:54:33;31.97;;;27.20;;
76115;SDS011;64847;45.778;12.802;2023-02-15T01:57:03;30.17;;;26.47;;
76115;SDS011;64847;45.778;12.802;2023-02-15T01:59:30;33.07;;;28.17;;
76115;SDS011;64847;45.778;12.802;2023-02-15T02:01:58;30.77;;;26.73;;
76115;SDS011;64847;45.778;12.802;2023-02-15T02:07:07;31.50;;;26.47;;
76115;SDS011;64847;45.778;12.802;2023-02-15T02:09:35;28.80;;;24.73;;
76115;SDS011;64847;45.778;12.802;2023-02-15T02:12:01;31.63;;;25.83;;
76115;SDS011;64847;45.778;12.802;2023-02-15T02:14:27;28.10;;;24.83;;
76115;SDS011;64847;45.778;12.802;2023-02-15T02:16:57;28.20;;;23.73;;
76115;SDS011;64847;45.778;12.802;2023-02-15T02:41:50;24.57;;;21.60;;
76115;SDS011;64847;45.778;12.802;2023-02-15T02:47:13;27.13;;;21.63;;
76115;SDS011;64847;45.778;12.802;2023-02-15T02:49:43;25.60;;;22.23;;
76115;SDS011;64847;45.778;12.802;2023-02-15T02:55:23;22.93;;;20.43;;
76115;SDS011;64847;45.778;12.802;2023-02-15T02:58:10;22.63;;;20.13;;
76115;SDS011;64847;45.778;12.802;2023-02-15T03:00:44;22.23;;;19.93;;
76115;SDS011;64847;45.778;12.802;2023-02-15T03:06:03;23.73;;;21.13;;
76115;SDS011;64847;45.778;12.802;2023-02-15T03:08:39;24.83;;;21.03;;
76115;SDS011;64847;45.778;12.802;2023-02-15T03:11:07;25.27;;;21.40;;
76115;SDS011;64847;45.778;12.802;2023-02-15T03:13:33;23.80;;;20.53;;
76115;SDS011;64847;45.778;12.802;2023-02-15T03:15:59;23.03;;;20.53;;
76115;SDS011;64847;45.778;12.802;2023-02-15T03:18:48;20.40;;;18.30;;
76115;SDS011;64847;45.778;12.802;2023-02-15T03:21:19;22.60;;;19.93;;
76115;SDS011;64847;45.778;12.802;2023-02-15T03:24:07;22.73;;;20.13;;
76115;SDS011;64847;45.778;12.802;2023-02-15T03:26:35;22.53;;;19.53;;
76115;SDS011;64847;45.778;12.802;2023-02-15T03:29:01;23.60;;;20.10;;
76115;SDS011;64847;45.778;12.802;2023-02-15T03:31:28;21.27;;;18.73;;
76115;SDS011;64847;45.778;12.802;2023-02-15T03:33:57;20.93;;;18.30;;
76115;SDS011;64847;45.778;12.802;2023-02-15T03:36:30;19.40;;;17.30;;
76115;SDS011;64847;45.778;12.802;2023-02-15T03:44:48;19.27;;;17.03;;
76115;SDS011;64847;45.778;12.802;2023-02-15T03:47:19;19.07;;;16.97;;
76115;SDS011;64847;45.778;12.802;2023-02-15T03:49:52;21.83;;;17.37;;
76115;SDS011;64847;45.778;12.802;2023-02-15T03:52:20;18.90;;;16.90;;
76115;SDS011;64847;45.778;12.802;2023-02-15T03:54:46;20.43;;;17.43;;
76115;SDS011;64847;45.778;12.802;2023-02-15T03:57:25;18.53;;;15.60;;
76115;SDS011;64847;45.778;12.802;2023-02-15T04:05:37;18.63;;;15.83;;
76115;SDS011;64847;45.778;12.802;2023-02-15T04:08:03;18.23;;;16.27;;
76115;SDS011;64847;45.778;12.802;2023-02-15T04:10:29;18.20;;;15.83;;
76115;SDS011;64847;45.778;12.802;2023-02-15T04:13:13;18.30;;;16.40;;
76115;SDS011;64847;45.778;12.802;2023-02-15T04:15:38;17.43;;;15.10;;
76115;SDS011;64847;45.778;12.802;2023-02-15T04:18:22;17.47;;;14.87;;
76115;SDS011;64847;45.778;12.802;2023-02-15T04:21:06;17.77;;;15.47;;
76115;SDS011;64847;45.778;12.802;2023-02-15T04:23:50;18.07;;;15.23;;
76115;SDS011;64847;45.778;12.802;2023-02-15T04:26:34;19.90;;;16.00;;
76115;SDS011;64847;45.778;12.802;2023-02-15T04:28:59;15.40;;;13.80;;
76115;SDS011;64847;45.778;12.802;2023-02-15T04:31:25;15.50;;;13.90;;
76115;SDS011;64847;45.778;12.802;2023-02-15T04:33:50;16.03;;;13.67;;
76115;SDS011;64847;45.778;12.802;2023-02-15T04:36:15;13.93;;;12.43;;
76115;SDS011;64847;45.778;12.802;2023-02-15T04:38:41;14.07;;;12.57;;
76115;SDS011;64847;45.778;12.802;2023-02-15T04:41:06;14.27;;;11.77;;
76115;SDS011;64847;45.778;12.802;2023-02-15T04:43:31;15.50;;;13.17;;
76115;SDS011;64847;45.778;12.802;2023-02-15T04:45:57;14.60;;;13.00;;
76115;SDS011;64847;45.778;12.802;2023-02-15T04:48:23;14.30;;;12.13;;
76115;SDS011;64847;45.778;12.802;2023-02-15T04:50:49;14.20;;;12.63;;
76115;SDS011;64847;45.778;12.802;2023-02-15T04:53:14;14.20;;;12.30;;
76115;SDS011;64847;45.778;12.802;2023-02-15T04:55:42;14.87;;;12.77;;
76115;SDS011;64847;45.778;12.802;2023-02-15T04:58:07;12.63;;;11.33;;
76115;SDS011;64847;45.778;12.802;2023-02-15T05:00:32;13.57;;;11.30;;
76115;SDS011;64847;45.778;12.802;2023-02-15T05:02:58;13.10;;;11.67;;
76115;SDS011;64847;45.778;12.802;2023-02-15T05:05:23;12.67;;;11.37;;
76115;SDS011;64847;45.778;12.802;2023-02-15T05:07:49;13.33;;;11.83;;
76115;SDS011;64847;45.778;12.802;2023-02-15T05:10:14;13.33;;;11.47;;
76115;SDS011;64847;45.778;12.802;2023-02-15T05:12:40;14.60;;;12.73;;
76115;SDS011;64847;45.778;12.802;2023-02-15T05:15:05;13.47;;;12.07;;
76115;SDS011;64847;45.778;12.802;2023-02-15T05:17:32;13.33;;;11.83;;
76115;SDS011;64847;45.778;12.802;2023-02-15T05:19:57;15.10;;;12.73;;
76115;SDS011;64847;45.778;12.802;2023-02-15T05:22:22;14.77;;;12.13;;
76115;SDS011;64847;45.778;12.802;2023-02-15T05:24:48;13.77;;;12.33;;
76115;SDS011;64847;45.778;12.802;2023-02-15T05:27:34;13.33;;;11.67;;
76115;SDS011;64847;45.778;12.802;2023-02-15T05:30:31;15.90;;;12.43;;
76115;SDS011;64847;45.778;12.802;2023-02-15T05:32:57;16.60;;;11.90;;
76115;SDS011;64847;45.778;12.802;2023-02-15T05:35:22;12.97;;;11.40;;
76115;SDS011;64847;45.778;12.802;2023-02-15T05:37:47;14.77;;;12.63;;
76115;SDS011;64847;45.778;12.802;2023-02-15T05:40:14;14.30;;;12.03;;
76115;SDS011;64847;45.778;12.802;2023-02-15T05:42:39;12.30;;;10.93;;
76115;SDS011;64847;45.778;12.802;2023-02-15T05:45:05;13.37;;;11.97;;
76115;SDS011;64847;45.778;12.802;2023-02-15T05:47:31;13.87;;;11.90;;
76115;SDS011;64847;45.778;12.802;2023-02-15T05:49:56;15.27;;;12.17;;
76115;SDS011;64847;45.778;12.802;2023-02-15T05:52:21;13.00;;;11.17;;
76115;SDS011;64847;45.778;12.802;2023-02-15T05:54:47;12.20;;;10.90;;
76115;SDS011;64847;45.778;12.802;2023-02-15T05:57:12;12.50;;;11.13;;
76115;SDS011;64847;45.778;12.802;2023-02-15T05:59:37;12.63;;;10.80;;
76115;SDS011;64847;45.778;12.802;2023-02-15T06:02:03;13.80;;;11.30;;
76115;SDS011;64847;45.778;12.802;2023-02-15T06:04:28;12.43;;;10.70;;
76115;SDS011;64847;45.778;12.802;2023-02-15T06:06:53;14.00;;;10.97;;
76115;SDS011;64847;45.778;12.802;2023-02-15T06:09:19;11.53;;;10.33;;
76115;SDS011;64847;45.778;12.802;2023-02-15T06:11:45;12.17;;;10.67;;
76115;SDS011;64847;45.778;12.802;2023-02-15T06:14:10;11.93;;;10.53;;
76115;SDS011;64847;45.778;12.802;2023-02-15T06:16:36;12.10;;;10.20;;
76115;SDS011;64847;45.778;12.802;2023-02-15T06:19:02;11.93;;;10.43;;
76115;SDS011;64847;45.778;12.802;2023-02-15T06:21:29;10.80;;;9.70;;
76115;SDS011;64847;45.778;12.802;2023-02-15T06:23:55;11.63;;;10.40;;
76115;SDS011;64847;45.778;12.802;2023-02-15T06:26:20;11.73;;;10.10;;
76115;SDS011;64847;45.778;12.802;2023-02-15T06:28:46;11.80;;;10.30;;
76115;SDS011;64847;45.778;12.802;2023-02-15T06:31:11;11.97;;;10.77;;
76115;SDS011;64847;45.778;12.802;2023-02-15T06:33:37;12.13;;;10.60;;
76115;SDS011;64847;45.778;12.802;2023-02-15T06:36:03;11.93;;;10.53;;
76115;SDS011;64847;45.778;12.802;2023-02-15T06:38:28;12.77;;;10.73;;
76115;SDS011;64847;45.778;12.802;2023-02-15T06:40:54;13.50;;;10.50;;
76115;SDS011;64847;45.778;12.802;2023-02-15T06:43:19;12.00;;;10.70;;
76115;SDS011;64847;45.778;12.802;2023-02-15T06:45:45;13.47;;;10.97;;
76115;SDS011;64847;45.778;12.802;2023-02-15T06:48:10;12.53;;;10.27;;
76115;SDS011;64847;45.778;12.802;2023-02-15T06:50:36;10.00;;;8.97;;
76115;SDS011;64847;45.778;12.802;2023-02-15T06:53:01;10.87;;;9.27;;
76115;SDS011;64847;45.778;12.802;2023-02-15T06:55:27;11.57;;;10.10;;
76115;SDS011;64847;45.778;12.802;2023-02-15T06:57:52;11.03;;;9.93;;
76115;SDS011;64847;45.778;12.802;2023-02-15T07:00:18;10.27;;;9.07;;
76115;SDS011;64847;45.778;12.802;2023-02-15T07:02:44;10.57;;;9.23;;
76115;SDS011;64847;45.778;12.802;2023-02-15T07:05:09;9.80;;;8.57;;
76115;SDS011;64847;45.778;12.802;2023-02-15T07:07:35;10.10;;;9.03;;
76115;SDS011;64847;45.778;12.802;2023-02-15T07:10:01;9.47;;;8.47;;
76115;SDS011;64847;45.778;12.802;2023-02-15T07:12:26;9.77;;;8.10;;
76115;SDS011;64847;45.778;12.802;2023-02-15T07:15:15;8.43;;;7.63;;
76115;SDS011;64847;45.778;12.802;2023-02-15T07:17:41;10.20;;;8.80;;
76115;SDS011;64847;45.778;12.802;2023-02-15T07:20:12;9.73;;;8.80;;
76115;SDS011;64847;45.778;12.802;2023-02-15T07:22:39;10.70;;;9.47;;
76115;SDS011;64847;45.778;12.802;2023-02-15T07:25:05;10.37;;;9.33;;
76115;SDS011;64847;45.778;12.802;2023-02-15T07:27:32;9.63;;;8.73;;
76115;SDS011;64847;45.778;12.802;2023-02-15T07:29:57;10.53;;;9.43;;
76115;SDS011;64847;45.778;12.802;2023-02-15T07:32:23;11.07;;;9.97;;
76115;SDS011;64847;45.778;12.802;2023-02-15T07:34:48;10.77;;;9.77;;
76115;SDS011;64847;45.778;12.802;2023-02-15T07:37:14;10.50;;;9.50;;
76115;SDS011;64847;45.778;12.802;2023-02-15T07:39:39;10.40;;;9.43;;
76115;SDS011;64847;45.778;12.802;2023-02-15T07:42:05;10.53;;;9.53;;
76115;SDS011;64847;45.778;12.802;2023-02-15T07:44:30;10.70;;;9.67;;
76115;SDS011;64847;45.778;12.802;2023-02-15T07:46:55;10.97;;;10.07;;
76115;SDS011;64847;45.778;12.802;2023-02-15T07:49:21;10.77;;;9.87;;
76115;SDS011;64847;45.778;12.802;2023-02-15T07:51:46;10.68;;;9.77;;
76115;SDS011;64847;45.778;12.802;2023-02-15T07:54:12;10.55;;;9.65;;
76115;SDS011;64847;45.778;12.802;2023-02-15T07:56:37;11.90;;;10.70;;
76115;SDS011;64847;45.778;12.802;2023-02-15T07:59:03;10.88;;;9.95;;
76115;SDS011;64847;45.778;12.802;2023-02-15T08:01:31;9.82;;;8.95;;
76115;SDS011;64847;45.778;12.802;2023-02-15T08:03:58;9.05;;;8.25;;
76115;SDS011;64847;45.778;12.802;2023-02-15T08:06:25;9.07;;;8.25;;
76115;SDS011;64847;45.778;12.802;2023-02-15T08:08:52;7.85;;;7.18;;
76115;SDS011;64847;45.778;12.802;2023-02-15T08:11:19;8.20;;;7.43;;
76115;SDS011;64847;45.778;12.802;2023-02-15T08:14:09;7.78;;;7.07;;
76115;SDS011;64847;45.778;12.802;2023-02-15T08:16:39;7.55;;;6.85;;
76115;SDS011;64847;45.778;12.802;2023-02-15T08:19:19;6.72;;;6.13;;
76115;SDS011;64847;45.778;12.802;2023-02-15T08:21:49;5.93;;;5.43;;
76115;SDS011;64847;45.778;12.802;2023-02-15T08:24:20;5.75;;;5.35;;
76115;SDS011;64847;45.778;12.802;2023-02-15T08:26:46;6.20;;;5.65;;
76115;SDS011;64847;45.778;12.802;2023-02-15T08:29:13;5.90;;;5.40;;
76115;SDS011;64847;45.778;12.802;2023-02-15T08:31:39;6.57;;;5.97;;
76115;SDS011;64847;45.778;12.802;2023-02-15T08:34:09;5.88;;;5.38;;
76115;SDS011;64847;45.778;12.802;2023-02-15T08:36:36;6.10;;;5.50;;
76115;SDS011;64847;45.778;12.802;2023-02-15T08:39:02;6.00;;;5.50;;
76115;SDS011;64847;45.778;12.802;2023-02-15T08:41:33;6.20;;;5.70;;
76115;SDS011;64847;45.778;12.802;2023-02-15T08:44:01;6.15;;;5.65;;
76115;SDS011;64847;45.778;12.802;2023-02-15T08:46:29;6.20;;;5.47;;
76115;SDS011;64847;45.778;12.802;2023-02-15T08:48:56;5.85;;;5.45;;
76115;SDS011;64847;45.778;12.802;2023-02-15T08:51:22;5.78;;;5.28;;
76115;SDS011;64847;45.778;12.802;2023-02-15T08:53:53;5.30;;;4.95;;
76115;SDS011;64847;45.778;12.802;2023-02-15T08:56:21;5.55;;;5.05;;
76115;SDS011;64847;45.778;12.802;2023-02-15T08:58:48;5.45;;;4.95;;
76115;SDS011;64847;45.778;12.802;2023-02-15T09:01:18;5.63;;;5.07;;
76115;SDS011;64847;45.778;12.802;2023-02-15T09:03:48;5.22;;;4.85;;
76115;SDS011;64847;45.778;12.802;2023-02-15T09:06:15;5.43;;;4.93;;
76115;SDS011;64847;45.778;12.802;2023-02-15T09:08:42;5.13;;;4.72;;
76115;SDS011;64847;45.778;12.802;2023-02-15T09:13:34;5.13;;;4.72;;
76115;SDS011;64847;45.778;12.802;2023-02-15T09:16:00;5.25;;;4.82;;
76115;SDS011;64847;45.778;12.802;2023-02-15T09:18:27;4.80;;;4.50;;
76115;SDS011;64847;45.778;12.802;2023-02-15T09:20:54;5.07;;;4.70;;
76115;SDS011;64847;45.778;12.802;2023-02-15T09:23:20;4.90;;;4.60;;
76115;SDS011;64847;45.778;12.802;2023-02-15T09:25:48;5.80;;;5.20;;
76115;SDS011;64847;45.778;12.802;2023-02-15T09:28:15;5.65;;;5.25;;
76115;SDS011;64847;45.778;12.802;2023-02-15T09:30:41;8.18;;;7.43;;
76115;SDS011;64847;45.778;12.802;2023-02-15T09:33:06;9.38;;;8.60;;
76115;SDS011;64847;45.778;12.802;2023-02-15T09:35:32;8.27;;;7.63;;
76115;SDS011;64847;45.778;12.802;2023-02-15T09:37:58;7.45;;;6.88;;
76115;SDS011;64847;45.778;12.802;2023-02-15T09:40:23;6.65;;;6.15;;
76115;SDS011;64847;45.778;12.802;2023-02-15T09:48:35;5.60;;;5.10;;
76115;SDS011;64847;45.778;12.802;2023-02-15T09:51:07;5.50;;;5.10;;
76115;SDS011;64847;45.778;12.802;2023-02-15T09:53:57;5.05;;;4.65;;
76115;SDS011;64847;45.778;12.802;2023-02-15T09:56:51;5.00;;;4.40;;
76115;SDS011;64847;45.778;12.802;2023-02-15T10:02:27;6.00;;;4.75;;
76115;SDS011;64847;45.778;12.802;2023-02-15T10:07:59;4.82;;;4.43;;
76115;SDS011;64847;45.778;12.802;2023-02-15T10:14:03;4.18;;;3.92;;
76115;SDS011;64847;45.778;12.802;2023-02-15T10:16:46;4.38;;;4.10;;
76115;SDS011;64847;45.778;12.802;2023-02-15T10:21:59;5.13;;;4.63;;
76115;SDS011;64847;45.778;12.802;2023-02-15T10:24:57;4.18;;;3.92;;
76115;SDS011;64847;45.778;12.802;2023-02-15T10:27:27;5.03;;;4.72;;
76115;SDS011;64847;45.778;12.802;2023-02-15T10:30:08;4.80;;;4.45;;
76115;SDS011;64847;45.778;12.802;2023-02-15T10:40:27;4.82;;;4.43;;
76115;SDS011;64847;45.778;12.802;2023-02-15T10:51:42;5.25;;;4.85;;
76115;SDS011;64847;45.778;12.802;2023-02-15T10:57:18;5.43;;;5.03;;
76115;SDS011;64847;45.778;12.802;2023-02-15T11:06:47;5.45;;;5.05;;
76115;SDS011;64847;45.778;12.802;2023-02-15T11:08:57;5.57;;;5.22;;
76115;SDS011;64847;45.778;12.802;2023-02-15T11:11:58;6.10;;;5.60;;
76115;SDS011;64847;45.778;12.802;2023-02-15T11:14:23;5.00;;;4.70;;
76115;SDS011;64847;45.778;12.802;2023-02-15T11:16:59;5.80;;;5.38;;
76115;SDS011;64847;45.778;12.802;2023-02-15T11:19:33;5.60;;;5.20;;
76115;SDS011;64847;45.778;12.802;2023-02-15T11:22:02;5.70;;;5.30;;
76115;SDS011;64847;45.778;12.802;2023-02-15T11:24:29;5.68;;;5.28;;
76115;SDS011;64847;45.778;12.802;2023-02-15T11:27:00;5.55;;;5.15;;
76115;SDS011;64847;45.778;12.802;2023-02-15T11:29:32;5.85;;;5.28;;
76115;SDS011;64847;45.778;12.802;2023-02-15T11:32:13;5.75;;;5.30;;
76115;SDS011;64847;45.778;12.802;2023-02-15T11:37:18;5.97;;;5.40;;
76115;SDS011;64847;45.778;12.802;2023-02-15T11:39:46;6.00;;;5.57;;
76115;SDS011;64847;45.778;12.802;2023-02-15T11:42:17;6.25;;;5.65;;
76115;SDS011;64847;45.778;12.802;2023-02-15T11:47:46;6.60;;;6.03;;
76115;SDS011;64847;45.778;12.802;2023-02-15T11:50:13;5.72;;;5.30;;
76115;SDS011;64847;45.778;12.802;2023-02-15T11:52:41;6.45;;;5.85;;
76115;SDS011;64847;45.778;12.802;2023-02-15T11:55:11;6.45;;;5.93;;
76115;SDS011;64847;45.778;12.802;2023-02-15T11:57:39;6.20;;;5.70;;
76115;SDS011;64847;45.778;12.802;2023-02-15T12:02:37;5.57;;;5.07;;
76115;SDS011;64847;45.778;12.802;2023-02-15T12:05:09;5.72;;;5.32;;
76115;SDS011;64847;45.778;12.802;2023-02-15T12:07:42;6.45;;;5.90;;
76115;SDS011;64847;45.778;12.802;2023-02-15T12:12:47;6.00;;;5.57;;
76115;SDS011;64847;45.778;12.802;2023-02-15T12:15:13;5.93;;;5.53;;
76115;SDS011;64847;45.778;12.802;2023-02-15T12:17:41;6.45;;;5.95;;
76115;SDS011;64847;45.778;12.802;2023-02-15T12:22:51;6.43;;;5.95;;
76115;SDS011;64847;45.778;12.802;2023-02-15T12:28:15;6.35;;;5.85;;
76115;SDS011;64847;45.778;12.802;2023-02-15T12:30:50;6.20;;;5.78;;
76115;SDS011;64847;45.778;12.802;2023-02-15T12:35:54;5.93;;;5.53;;
76115;SDS011;64847;45.778;12.802;2023-02-15T12:38:24;5.80;;;5.40;;
76115;SDS011;64847;45.778;12.802;2023-02-15T12:40:58;6.18;;;5.78;;
76115;SDS011;64847;45.778;12.802;2023-02-15T12:49:10;6.43;;;5.93;;
76115;SDS011;64847;45.778;12.802;2023-02-15T12:54:43;6.22;;;5.82;;
76115;SDS011;64847;45.778;12.802;2023-02-15T12:57:14;6.50;;;5.90;;
76115;SDS011;64847;45.778;12.802;2023-02-15T13:02:22;6.07;;;5.65;;
76115;SDS011;64847;45.778;12.802;2023-02-15T13:04:50;6.28;;;5.78;;
76115;SDS011;64847;45.778;12.802;2023-02-15T13:07:17;6.93;;;6.32;;
76115;SDS011;64847;45.778;12.802;2023-02-15T13:09:42;7.03;;;6.43;;
76115;SDS011;64847;45.778;12.802;2023-02-15T13:14:49;7.88;;;7.28;;
76115;SDS011;64847;45.778;12.802;2023-02-15T13:17:16;7.80;;;7.20;;
76115;SDS011;64847;45.778;12.802;2023-02-15T13:19:44;7.25;;;6.55;;
76115;SDS011;64847;45.778;12.802;2023-02-15T13:25:20;7.32;;;6.65;;
76115;SDS011;64847;45.778;12.802;2023-02-15T13:27:48;7.30;;;6.70;;
76115;SDS011;64847;45.778;12.802;2023-02-15T13:30:27;7.18;;;6.47;;
76115;SDS011;64847;45.778;12.802;2023-02-15T13:33:10;7.80;;;7.10;;
76115;SDS011;64847;45.778;12.802;2023-02-15T13:36:09;7.28;;;6.68;;
76115;SDS011;64847;45.778;12.802;2023-02-15T13:41:27;7.15;;;6.55;;
76115;SDS011;64847;45.778;12.802;2023-02-15T13:49:37;7.80;;;7.10;;
76115;SDS011;64847;45.778;12.802;2023-02-15T13:52:22;7.75;;;7.05;;
76115;SDS011;64847;45.778;12.802;2023-02-15T13:55:13;8.63;;;7.15;;
76115;SDS011;64847;45.778;12.802;2023-02-15T14:00:51;7.53;;;6.85;;
76115;SDS011;64847;45.778;12.802;2023-02-15T14:11:10;7.35;;;6.65;;
76115;SDS011;64847;45.778;12.802;2023-02-15T14:29:51;7.82;;;7.13;;
76115;SDS011;64847;45.778;12.802;2023-02-15T14:32:25;7.78;;;7.07;;
76115;SDS011;64847;45.778;12.802;2023-02-15T14:34:58;7.40;;;6.75;;
76115;SDS011;64847;45.778;12.802;2023-02-15T14:48:53;7.18;;;6.00;;
76115;SDS011;64847;45.778;12.802;2023-02-15T14:54:09;7.40;;;6.57;;
76115;SDS011;64847;45.778;12.802;2023-02-15T14:56:35;6.90;;;6.30;;
76115;SDS011;64847;45.778;12.802;2023-02-15T15:04:43;6.47;;;5.95;;
76115;SDS011;64847;45.778;12.802;2023-02-15T15:09:59;6.85;;;6.15;;
76115;SDS011;64847;45.778;12.802;2023-02-15T15:14:56;9.43;;;8.23;;
76115;SDS011;64847;45.778;12.802;2023-02-15T15:19:58;8.50;;;7.72;;
76115;SDS011;64847;45.778;12.802;2023-02-15T15:22:24;8.30;;;7.53;;
76115;SDS011;64847;45.778;12.802;2023-02-15T15:24:57;7.72;;;7.03;;
76115;SDS011;64847;45.778;12.802;2023-02-15T15:47:22;8.50;;;7.70;;
76115;SDS011;64847;45.778;12.802;2023-02-15T15:49:58;10.20;;;8.63;;
76115;SDS011;64847;45.778;12.802;2023-02-15T15:52:24;10.07;;;8.33;;
76115;SDS011;64847;45.778;12.802;2023-02-15T15:54:52;10.80;;;9.70;;
76115;SDS011;64847;45.778;12.802;2023-02-15T15:57:32;15.40;;;12.77;;
76115;SDS011;64847;45.778;12.802;2023-02-15T15:59:58;13.57;;;12.17;;
76115;SDS011;64847;45.778;12.802;2023-02-15T16:02:26;14.40;;;12.93;;
76115;SDS011;64847;45.778;12.802;2023-02-15T16:04:51;14.27;;;12.87;;
76115;SDS011;64847;45.778;12.802;2023-02-15T16:12:30;15.50;;;13.83;;
76115;SDS011;64847;45.778;12.802;2023-02-15T16:14:56;16.17;;;14.47;;
76115;SDS011;64847;45.778;12.802;2023-02-15T16:17:23;17.20;;;15.43;;
76115;SDS011;64847;45.778;12.802;2023-02-15T16:19:50;18.77;;;16.80;;
76115;SDS011;64847;45.778;12.802;2023-02-15T16:22:20;16.90;;;15.07;;
76115;SDS011;64847;45.778;12.802;2023-02-15T16:25:02;16.67;;;14.93;;
76115;SDS011;64847;45.778;12.802;2023-02-15T16:27:39;17.33;;;15.50;;
76115;SDS011;64847;45.778;12.802;2023-02-15T16:30:19;16.33;;;14.73;;
76115;SDS011;64847;45.778;12.802;2023-02-15T16:32:45;17.57;;;15.47;;
76115;SDS011;64847;45.778;12.802;2023-02-15T16:35:14;18.43;;;16.50;;
76115;SDS011;64847;45.778;12.802;2023-02-15T16:37:41;22.13;;;19.30;;
76115;SDS011;64847;45.778;12.802;2023-02-15T16:40:12;20.70;;;18.37;;
76115;SDS011;64847;45.778;12.802;2023-02-15T16:42:54;19.93;;;15.80;;
76115;SDS011;64847;45.778;12.802;2023-02-15T16:45:21;17.60;;;15.67;;
76115;SDS011;64847;45.778;12.802;2023-02-15T16:47:50;18.67;;;16.23;;
76115;SDS011;64847;45.778;12.802;2023-02-15T16:50:19;17.77;;;15.47;;
76115;SDS011;64847;45.778;12.802;2023-02-15T16:52:46;19.90;;;16.13;;
76115;SDS011;64847;45.778;12.802;2023-02-15T16:55:26;20.30;;;17.17;;
76115;SDS011;64847;45.778;12.802;2023-02-15T16:58:02;23.17;;;18.73;;
76115;SDS011;64847;45.778;12.802;2023-02-15T17:00:38;21.13;;;17.47;;
76115;SDS011;64847;45.778;12.802;2023-02-15T17:03:29;20.73;;;16.90;;
76115;SDS011;64847;45.778;12.802;2023-02-15T17:05:54;18.87;;;16.13;;
76115;SDS011;64847;45.778;12.802;2023-02-15T17:13:24;20.90;;;16.57;;
76115;SDS011;64847;45.778;12.802;2023-02-15T17:18:26;19.30;;;15.40;;
76115;SDS011;64847;45.778;12.802;2023-02-15T17:21:16;17.93;;;15.47;;
76115;SDS011;64847;45.778;12.802;2023-02-15T17:23:46;18.80;;;15.53;;
76115;SDS011;64847;45.778;12.802;2023-02-15T17:26:30;18.03;;;13.67;;
76115;SDS011;64847;45.778;12.802;2023-02-15T17:28:59;15.30;;;13.23;;
76115;SDS011;64847;45.778;12.802;2023-02-15T17:31:27;16.87;;;13.33;;
76115;SDS011;64847;45.778;12.802;2023-02-15T17:33:56;19.87;;;14.13;;
76115;SDS011;64847;45.778;12.802;2023-02-15T17:36:24;18.07;;;14.17;;
76115;SDS011;64847;45.778;12.802;2023-02-15T17:41:22;16.97;;;13.90;;
76115;SDS011;64847;45.778;12.802;2023-02-15T17:43:47;20.50;;;15.70;;
76115;SDS011;64847;45.778;12.802;2023-02-15T17:46:13;19.77;;;17.30;;
76115;SDS011;64847;45.778;12.802;2023-02-15T17:48:41;26.23;;;16.90;;
76115;SDS011;64847;45.778;12.802;2023-02-15T17:51:09;21.57;;;16.77;;
76115;SDS011;64847;45.778;12.802;2023-02-15T17:53:37;20.57;;;16.17;;
76115;SDS011;64847;45.778;12.802;2023-02-15T17:56:02;20.07;;;14.97;;
76115;SDS011;64847;45.778;12.802;2023-02-15T17:58:37;19.73;;;15.70;;
76115;SDS011;64847;45.778;12.802;2023-02-15T18:01:11;23.93;;;16.97;;
76115;SDS011;64847;45.778;12.802;2023-02-15T18:03:58;21.67;;;16.80;;
76115;SDS011;64847;45.778;12.802;2023-02-15T18:06:42;21.13;;;16.57;;
76115;SDS011;64847;45.778;12.802;2023-02-15T18:09:26;21.60;;;17.23;;
76115;SDS011;64847;45.778;12.802;2023-02-15T18:12:21;22.93;;;18.37;;
76115;SDS011;64847;45.778;12.802;2023-02-15T18:14:49;19.97;;;17.90;;
76115;SDS011;64847;45.778;12.802;2023-02-15T18:17:15;23.30;;;18.53;;
76115;SDS011;64847;45.778;12.802;2023-02-15T18:19:41;21.80;;;18.40;;
76115;SDS011;64847;45.778;12.802;2023-02-15T18:22:14;19.63;;;17.50;;
76115;SDS011;64847;45.778;12.802;2023-02-15T18:24:41;19.30;;;17.23;;